sensor_id;sensor_type;location;lat;lon;timestamp;P1;durP1;ratioP1;P2;durP2;ratioP2
31112;SDS011;17763;48.730;9.136;2024-02-26T00:01:46;3.22;;;2.60;;
31112;SDS011;17763;48.730;9.136;2024-02-26T00:04:12;2.97;;;2.63;;
31112;SDS011;17763;48.730;9.136;2024-02-26T00:06:38;3.47;;;2.92;;
31112;SDS011;17763;48.730;9.136;2024-02-26T00:09:07;3.17;;;2.88;;
31112;SDS011;17763;48.730;9.136;2024-02-26T00:11:33;3.55;;;3.25;;
31112;SDS011;17763;48.730;9.136;2024-02-26T00:14:00;4.03;;;3.20;;
31112;SDS011;17763;48.730;9.136;2024-02-26T00:16:25;4.43;;;2.75;;
31112;SDS011;17763;48.730;9.136;2024-02-26T00:18:54;3.38;;;3.08;;
31112;SDS011;17763;48.730;9.136;2024-02-26T00:21:19;3.30;;;3.00;;
31112;SDS011;17763;48.730;9.136;2024-02-26T00:23:47;2.80;;;2.60;;
31112;SDS011;17763;48.730;9.136;2024-02-26T00:26:15;3.63;;;2.90;;
31112;SDS011;17763;48.730;9.136;2024-02-26T00:28:41;2.60;;;2.40;;
31112;SDS011;17763;48.730;9.136;2024-02-26T00:31:06;3.92;;;3.00;;
31112;SDS011;17763;48.730;9.136;2024-02-26T00:33:32;2.85;;;2.65;;
31112;SDS011;17763;48.730;9.136;2024-02-26T00:35:58;4.38;;;2.70;;
31112;SDS011;17763;48.730;9.136;2024-02-26T00:38:23;2.70;;;2.50;;
31112;SDS011;17763;48.730;9.136;2024-02-26T00:40:49;2.65;;;2.45;;
31112;SDS011;17763;48.730;9.136;2024-02-26T00:43:15;2.67;;;2.47;;
31112;SDS011;17763;48.730;9.136;2024-02-26T00:45:43;3.08;;;2.70;;
31112;SDS011;17763;48.730;9.136;2024-02-26T00:48:11;4.18;;;2.90;;
31112;SDS011;17763;48.730;9.136;2024-02-26T00:50:38;3.10;;;2.83;;
31112;SDS011;17763;48.730;9.136;2024-02-26T00:53:04;3.00;;;2.80;;
31112;SDS011;17763;48.730;9.136;2024-02-26T00:55:33;2.83;;;2.63;;
31112;SDS011;17763;48.730;9.136;2024-02-26T00:57:59;4.63;;;2.80;;
31112;SDS011;17763;48.730;9.136;2024-02-26T01:00:25;4.85;;;2.90;;
31112;SDS011;17763;48.730;9.136;2024-02-26T01:02:50;4.53;;;3.05;;
31112;SDS011;17763;48.730;9.136;2024-02-26T01:05:16;4.07;;;2.65;;
31112;SDS011;17763;48.730;9.136;2024-02-26T01:07:42;3.00;;;2.70;;
31112;SDS011;17763;48.730;9.136;2024-02-26T01:10:08;4.13;;;3.70;;
31112;SDS011;17763;48.730;9.136;2024-02-26T01:12:34;4.07;;;3.53;;
31112;SDS011;17763;48.730;9.136;2024-02-26T01:15:00;3.35;;;3.05;;
31112;SDS011;17763;48.730;9.136;2024-02-26T01:17:31;4.18;;;3.00;;
31112;SDS011;17763;48.730;9.136;2024-02-26T01:19:56;6.13;;;4.78;;
31112;SDS011;17763;48.730;9.136;2024-02-26T01:22:24;3.58;;;3.28;;
31112;SDS011;17763;48.730;9.136;2024-02-26T01:24:50;3.97;;;2.83;;
31112;SDS011;17763;48.730;9.136;2024-02-26T01:27:16;3.60;;;2.88;;
31112;SDS011;17763;48.730;9.136;2024-02-26T01:29:41;5.47;;;3.50;;
31112;SDS011;17763;48.730;9.136;2024-02-26T01:32:07;3.58;;;3.25;;
31112;SDS011;17763;48.730;9.136;2024-02-26T01:34:35;3.20;;;2.75;;
31112;SDS011;17763;48.730;9.136;2024-02-26T01:37:02;3.42;;;3.13;;
31112;SDS011;17763;48.730;9.136;2024-02-26T01:39:28;2.97;;;2.78;;
31112;SDS011;17763;48.730;9.136;2024-02-26T01:41:56;2.95;;;2.65;;
31112;SDS011;17763;48.730;9.136;2024-02-26T01:44:21;3.88;;;2.33;;
31112;SDS011;17763;48.730;9.136;2024-02-26T01:46:47;3.05;;;2.75;;
31112;SDS011;17763;48.730;9.136;2024-02-26T01:49:14;4.97;;;2.83;;
31112;SDS011;17763;48.730;9.136;2024-02-26T01:51:41;2.90;;;2.70;;
31112;SDS011;17763;48.730;9.136;2024-02-26T01:54:08;3.20;;;2.90;;
31112;SDS011;17763;48.730;9.136;2024-02-26T01:56:35;3.20;;;2.70;;
31112;SDS011;17763;48.730;9.136;2024-02-26T01:59:01;2.72;;;2.42;;
31112;SDS011;17763;48.730;9.136;2024-02-26T02:01:31;3.17;;;2.88;;
31112;SDS011;17763;48.730;9.136;2024-02-26T02:03:59;3.28;;;2.53;;
31112;SDS011;17763;48.730;9.136;2024-02-26T02:06:25;2.97;;;2.42;;
31112;SDS011;17763;48.730;9.136;2024-02-26T02:08:53;3.63;;;2.03;;
31112;SDS011;17763;48.730;9.136;2024-02-26T02:11:19;2.55;;;2.05;;
31112;SDS011;17763;48.730;9.136;2024-02-26T02:13:45;2.33;;;2.13;;
31112;SDS011;17763;48.730;9.136;2024-02-26T02:16:14;1.65;;;1.55;;
31112;SDS011;17763;48.730;9.136;2024-02-26T02:18:41;1.70;;;1.60;;
31112;SDS011;17763;48.730;9.136;2024-02-26T02:21:06;1.80;;;1.70;;
31112;SDS011;17763;48.730;9.136;2024-02-26T02:23:34;1.83;;;1.73;;
31112;SDS011;17763;48.730;9.136;2024-02-26T02:26:00;1.80;;;1.70;;
31112;SDS011;17763;48.730;9.136;2024-02-26T02:28:26;1.75;;;1.65;;
31112;SDS011;17763;48.730;9.136;2024-02-26T02:30:55;2.35;;;2.15;;
31112;SDS011;17763;48.730;9.136;2024-02-26T02:33:21;2.50;;;1.50;;
31112;SDS011;17763;48.730;9.136;2024-02-26T02:35:51;2.28;;;2.10;;
31112;SDS011;17763;48.730;9.136;2024-02-26T02:38:19;1.73;;;1.63;;
31112;SDS011;17763;48.730;9.136;2024-02-26T02:40:44;1.90;;;1.80;;
31112;SDS011;17763;48.730;9.136;2024-02-26T02:43:10;2.70;;;1.73;;
31112;SDS011;17763;48.730;9.136;2024-02-26T02:45:36;1.83;;;1.65;;
31112;SDS011;17763;48.730;9.136;2024-02-26T02:48:02;1.83;;;1.58;;
31112;SDS011;17763;48.730;9.136;2024-02-26T02:50:28;1.40;;;1.30;;
31112;SDS011;17763;48.730;9.136;2024-02-26T02:52:54;2.35;;;1.30;;
31112;SDS011;17763;48.730;9.136;2024-02-26T02:55:22;1.63;;;1.52;;
31112;SDS011;17763;48.730;9.136;2024-02-26T02:57:47;1.17;;;1.00;;
31112;SDS011;17763;48.730;9.136;2024-02-26T03:00:15;1.35;;;1.25;;
31112;SDS011;17763;48.730;9.136;2024-02-26T03:02:41;2.65;;;1.38;;
31112;SDS011;17763;48.730;9.136;2024-02-26T03:05:08;1.20;;;1.13;;
31112;SDS011;17763;48.730;9.136;2024-02-26T03:07:36;1.10;;;1.02;;
31112;SDS011;17763;48.730;9.136;2024-02-26T03:10:02;1.00;;;1.00;;
31112;SDS011;17763;48.730;9.136;2024-02-26T03:12:33;1.20;;;1.00;;
31112;SDS011;17763;48.730;9.136;2024-02-26T03:14:59;1.65;;;1.00;;
31112;SDS011;17763;48.730;9.136;2024-02-26T03:17:29;0.98;;;0.98;;
31112;SDS011;17763;48.730;9.136;2024-02-26T03:19:55;1.25;;;0.65;;
31112;SDS011;17763;48.730;9.136;2024-02-26T03:22:21;0.85;;;0.63;;
31112;SDS011;17763;48.730;9.136;2024-02-26T03:24:47;0.70;;;0.70;;
31112;SDS011;17763;48.730;9.136;2024-02-26T03:27:13;0.88;;;0.88;;
31112;SDS011;17763;48.730;9.136;2024-02-26T03:29:39;0.80;;;0.75;;
31112;SDS011;17763;48.730;9.136;2024-02-26T03:32:05;0.63;;;0.63;;
31112;SDS011;17763;48.730;9.136;2024-02-26T03:34:31;1.30;;;0.75;;
31112;SDS011;17763;48.730;9.136;2024-02-26T03:37:00;0.95;;;0.80;;
31112;SDS011;17763;48.730;9.136;2024-02-26T03:39:26;0.70;;;0.70;;
31112;SDS011;17763;48.730;9.136;2024-02-26T03:41:52;0.60;;;0.60;;
31112;SDS011;17763;48.730;9.136;2024-02-26T03:44:20;0.60;;;0.60;;
31112;SDS011;17763;48.730;9.136;2024-02-26T03:46:46;0.73;;;0.65;;
31112;SDS011;17763;48.730;9.136;2024-02-26T03:49:12;0.60;;;0.60;;
31112;SDS011;17763;48.730;9.136;2024-02-26T03:51:38;0.95;;;0.57;;
31112;SDS011;17763;48.730;9.136;2024-02-26T03:54:04;0.77;;;0.77;;
31112;SDS011;17763;48.730;9.136;2024-02-26T03:56:31;0.88;;;0.88;;
31112;SDS011;17763;48.730;9.136;2024-02-26T03:58:57;1.58;;;0.90;;
31112;SDS011;17763;48.730;9.136;2024-02-26T04:01:24;1.58;;;0.90;;
31112;SDS011;17763;48.730;9.136;2024-02-26T04:03:50;0.73;;;0.60;;
31112;SDS011;17763;48.730;9.136;2024-02-26T04:06:17;0.80;;;0.80;;
31112;SDS011;17763;48.730;9.136;2024-02-26T04:08:45;0.70;;;0.60;;
31112;SDS011;17763;48.730;9.136;2024-02-26T04:11:12;2.15;;;0.70;;
31112;SDS011;17763;48.730;9.136;2024-02-26T04:13:38;1.13;;;1.00;;
31112;SDS011;17763;48.730;9.136;2024-02-26T04:16:07;0.88;;;0.85;;
31112;SDS011;17763;48.730;9.136;2024-02-26T04:18:32;0.90;;;0.90;;
31112;SDS011;17763;48.730;9.136;2024-02-26T04:20:58;0.90;;;0.70;;
31112;SDS011;17763;48.730;9.136;2024-02-26T04:23:24;1.00;;;0.90;;
31112;SDS011;17763;48.730;9.136;2024-02-26T04:25:52;1.33;;;1.08;;
31112;SDS011;17763;48.730;9.136;2024-02-26T04:28:18;1.92;;;1.05;;
31112;SDS011;17763;48.730;9.136;2024-02-26T04:30:45;1.10;;;1.10;;
31112;SDS011;17763;48.730;9.136;2024-02-26T04:33:13;1.00;;;0.90;;
31112;SDS011;17763;48.730;9.136;2024-02-26T04:35:38;1.27;;;0.95;;
31112;SDS011;17763;48.730;9.136;2024-02-26T04:38:04;1.63;;;1.35;;
31112;SDS011;17763;48.730;9.136;2024-02-26T04:40:32;1.70;;;1.20;;
31112;SDS011;17763;48.730;9.136;2024-02-26T04:42:58;1.33;;;1.20;;
31112;SDS011;17763;48.730;9.136;2024-02-26T04:45:23;1.60;;;1.50;;
31112;SDS011;17763;48.730;9.136;2024-02-26T04:47:49;2.35;;;2.00;;
31112;SDS011;17763;48.730;9.136;2024-02-26T04:50:15;2.13;;;1.92;;
31112;SDS011;17763;48.730;9.136;2024-02-26T04:52:41;2.60;;;2.25;;
31112;SDS011;17763;48.730;9.136;2024-02-26T04:55:09;2.33;;;2.20;;
31112;SDS011;17763;48.730;9.136;2024-02-26T04:57:34;2.88;;;2.65;;
31112;SDS011;17763;48.730;9.136;2024-02-26T05:00:00;7.10;;;3.40;;
31112;SDS011;17763;48.730;9.136;2024-02-26T05:02:26;2.65;;;2.35;;
31112;SDS011;17763;48.730;9.136;2024-02-26T05:04:54;6.80;;;2.60;;
31112;SDS011;17763;48.730;9.136;2024-02-26T05:07:22;2.80;;;2.57;;
31112;SDS011;17763;48.730;9.136;2024-02-26T05:09:48;3.25;;;3.00;;
31112;SDS011;17763;48.730;9.136;2024-02-26T05:12:17;2.53;;;2.17;;
31112;SDS011;17763;48.730;9.136;2024-02-26T05:14:42;2.55;;;2.35;;
31112;SDS011;17763;48.730;9.136;2024-02-26T05:17:08;2.60;;;2.40;;
31112;SDS011;17763;48.730;9.136;2024-02-26T05:19:36;3.15;;;2.60;;
31112;SDS011;17763;48.730;9.136;2024-02-26T05:22:04;2.30;;;2.10;;
31112;SDS011;17763;48.730;9.136;2024-02-26T05:24:30;3.28;;;2.47;;
31112;SDS011;17763;48.730;9.136;2024-02-26T05:26:55;4.40;;;2.40;;
31112;SDS011;17763;48.730;9.136;2024-02-26T05:29:21;3.60;;;2.50;;
31112;SDS011;17763;48.730;9.136;2024-02-26T05:31:49;2.97;;;2.30;;
31112;SDS011;17763;48.730;9.136;2024-02-26T05:34:15;3.67;;;3.10;;
31112;SDS011;17763;48.730;9.136;2024-02-26T05:36:41;2.75;;;2.55;;
31112;SDS011;17763;48.730;9.136;2024-02-26T05:39:06;2.75;;;2.13;;
31112;SDS011;17763;48.730;9.136;2024-02-26T05:41:34;2.50;;;2.30;;
31112;SDS011;17763;48.730;9.136;2024-02-26T05:44:00;3.47;;;2.50;;
31112;SDS011;17763;48.730;9.136;2024-02-26T05:46:28;3.45;;;2.90;;
31112;SDS011;17763;48.730;9.136;2024-02-26T05:48:54;3.88;;;2.40;;
31112;SDS011;17763;48.730;9.136;2024-02-26T05:51:20;4.68;;;2.55;;
31112;SDS011;17763;48.730;9.136;2024-02-26T05:53:46;3.35;;;2.88;;
31112;SDS011;17763;48.730;9.136;2024-02-26T05:56:19;3.25;;;2.83;;
31112;SDS011;17763;48.730;9.136;2024-02-26T05:58:45;3.03;;;2.72;;
31112;SDS011;17763;48.730;9.136;2024-02-26T06:01:11;2.33;;;2.13;;
31112;SDS011;17763;48.730;9.136;2024-02-26T06:03:39;3.95;;;2.60;;
31112;SDS011;17763;48.730;9.136;2024-02-26T06:06:07;2.63;;;2.42;;
31112;SDS011;17763;48.730;9.136;2024-02-26T06:08:33;2.50;;;2.30;;
31112;SDS011;17763;48.730;9.136;2024-02-26T06:11:01;2.60;;;2.38;;
31112;SDS011;17763;48.730;9.136;2024-02-26T06:13:30;2.70;;;2.45;;
31112;SDS011;17763;48.730;9.136;2024-02-26T06:15:56;3.95;;;2.20;;
31112;SDS011;17763;48.730;9.136;2024-02-26T06:18:22;2.33;;;2.13;;
31112;SDS011;17763;48.730;9.136;2024-02-26T06:20:47;4.03;;;2.60;;
31112;SDS011;17763;48.730;9.136;2024-02-26T06:23:13;2.67;;;2.47;;
31112;SDS011;17763;48.730;9.136;2024-02-26T06:25:39;2.65;;;2.45;;
31112;SDS011;17763;48.730;9.136;2024-02-26T06:28:06;2.60;;;2.40;;
31112;SDS011;17763;48.730;9.136;2024-02-26T06:30:32;2.38;;;1.92;;
31112;SDS011;17763;48.730;9.136;2024-02-26T06:33:02;3.75;;;2.40;;
31112;SDS011;17763;48.730;9.136;2024-02-26T06:35:30;2.65;;;2.45;;
31112;SDS011;17763;48.730;9.136;2024-02-26T06:37:57;2.47;;;1.88;;
31112;SDS011;17763;48.730;9.136;2024-02-26T06:40:22;3.05;;;2.25;;
31112;SDS011;17763;48.730;9.136;2024-02-26T06:42:48;2.97;;;2.30;;
31112;SDS011;17763;48.730;9.136;2024-02-26T06:45:17;2.50;;;2.30;;
31112;SDS011;17763;48.730;9.136;2024-02-26T06:47:44;2.28;;;2.08;;
31112;SDS011;17763;48.730;9.136;2024-02-26T06:50:13;2.97;;;2.53;;
31112;SDS011;17763;48.730;9.136;2024-02-26T06:52:40;2.50;;;2.30;;
31112;SDS011;17763;48.730;9.136;2024-02-26T06:55:08;2.75;;;2.55;;
31112;SDS011;17763;48.730;9.136;2024-02-26T06:57:34;2.97;;;2.67;;
31112;SDS011;17763;48.730;9.136;2024-02-26T07:00:01;3.95;;;2.33;;
31112;SDS011;17763;48.730;9.136;2024-02-26T07:02:29;3.53;;;2.25;;
31112;SDS011;17763;48.730;9.136;2024-02-26T07:04:57;3.55;;;2.35;;
31112;SDS011;17763;48.730;9.136;2024-02-26T07:07:23;3.47;;;2.55;;
31112;SDS011;17763;48.730;9.136;2024-02-26T07:09:50;2.40;;;2.20;;
31112;SDS011;17763;48.730;9.136;2024-02-26T07:12:15;5.90;;;2.50;;
31112;SDS011;17763;48.730;9.136;2024-02-26T07:14:41;2.58;;;2.38;;
31112;SDS011;17763;48.730;9.136;2024-02-26T07:17:08;2.95;;;2.30;;
31112;SDS011;17763;48.730;9.136;2024-02-26T07:19:34;3.10;;;2.70;;
31112;SDS011;17763;48.730;9.136;2024-02-26T07:21:59;2.53;;;2.30;;
31112;SDS011;17763;48.730;9.136;2024-02-26T07:24:28;2.50;;;2.30;;
31112;SDS011;17763;48.730;9.136;2024-02-26T07:26:54;3.88;;;2.60;;
31112;SDS011;17763;48.730;9.136;2024-02-26T07:29:20;2.92;;;2.63;;
31112;SDS011;17763;48.730;9.136;2024-02-26T07:31:46;5.22;;;3.20;;
31112;SDS011;17763;48.730;9.136;2024-02-26T07:34:12;4.30;;;3.33;;
31112;SDS011;17763;48.730;9.136;2024-02-26T07:36:40;6.68;;;3.20;;
31112;SDS011;17763;48.730;9.136;2024-02-26T07:39:06;4.57;;;3.95;;
31112;SDS011;17763;48.730;9.136;2024-02-26T07:41:32;3.50;;;3.20;;
31112;SDS011;17763;48.730;9.136;2024-02-26T07:43:58;3.40;;;2.90;;
31112;SDS011;17763;48.730;9.136;2024-02-26T07:46:24;3.70;;;3.40;;
31112;SDS011;17763;48.730;9.136;2024-02-26T07:59:20;4.32;;;3.42;;
31112;SDS011;17763;48.730;9.136;2024-02-26T08:01:52;3.45;;;3.15;;
31112;SDS011;17763;48.730;9.136;2024-02-26T08:04:18;3.50;;;2.85;;
31112;SDS011;17763;48.730;9.136;2024-02-26T08:06:43;6.40;;;3.10;;
31112;SDS011;17763;48.730;9.136;2024-02-26T08:09:09;5.13;;;2.90;;
31112;SDS011;17763;48.730;9.136;2024-02-26T08:11:35;5.32;;;2.65;;
31112;SDS011;17763;48.730;9.136;2024-02-26T08:14:02;2.72;;;2.42;;
31112;SDS011;17763;48.730;9.136;2024-02-26T08:16:28;3.95;;;2.50;;
31112;SDS011;17763;48.730;9.136;2024-02-26T08:18:56;3.40;;;2.50;;
31112;SDS011;17763;48.730;9.136;2024-02-26T08:21:22;2.67;;;2.33;;
31112;SDS011;17763;48.730;9.136;2024-02-26T08:23:50;5.70;;;2.60;;
31112;SDS011;17763;48.730;9.136;2024-02-26T08:26:16;4.07;;;2.80;;
31112;SDS011;17763;48.730;9.136;2024-02-26T08:28:41;5.60;;;3.17;;
31112;SDS011;17763;48.730;9.136;2024-02-26T08:31:07;3.55;;;2.85;;
31112;SDS011;17763;48.730;9.136;2024-02-26T08:33:33;4.85;;;3.08;;
31112;SDS011;17763;48.730;9.136;2024-02-26T08:36:07;3.50;;;3.20;;
31112;SDS011;17763;48.730;9.136;2024-02-26T08:38:33;3.92;;;2.92;;
31112;SDS011;17763;48.730;9.136;2024-02-26T08:41:01;6.63;;;3.83;;
31112;SDS011;17763;48.730;9.136;2024-02-26T08:43:30;9.10;;;3.35;;
31112;SDS011;17763;48.730;9.136;2024-02-26T08:45:58;7.30;;;3.55;;
31112;SDS011;17763;48.730;9.136;2024-02-26T08:48:23;6.80;;;4.20;;
31112;SDS011;17763;48.730;9.136;2024-02-26T08:50:52;5.07;;;3.40;;
31112;SDS011;17763;48.730;9.136;2024-02-26T08:53:22;3.97;;;2.87;;
31112;SDS011;17763;48.730;9.136;2024-02-26T08:55:48;5.30;;;3.03;;
31112;SDS011;17763;48.730;9.136;2024-02-26T08:58:13;3.65;;;2.80;;
31112;SDS011;17763;48.730;9.136;2024-02-26T09:00:41;3.72;;;2.42;;
31112;SDS011;17763;48.730;9.136;2024-02-26T09:03:09;2.67;;;2.47;;
31112;SDS011;17763;48.730;9.136;2024-02-26T09:05:35;4.25;;;2.90;;
31112;SDS011;17763;48.730;9.136;2024-02-26T09:08:01;3.30;;;2.50;;
31112;SDS011;17763;48.730;9.136;2024-02-26T09:10:26;3.92;;;2.65;;
31112;SDS011;17763;48.730;9.136;2024-02-26T09:12:52;2.90;;;2.60;;
31112;SDS011;17763;48.730;9.136;2024-02-26T09:15:17;3.00;;;2.55;;
31112;SDS011;17763;48.730;9.136;2024-02-26T09:17:43;3.00;;;2.65;;
31112;SDS011;17763;48.730;9.136;2024-02-26T09:20:10;3.55;;;2.45;;
31112;SDS011;17763;48.730;9.136;2024-02-26T09:22:36;2.90;;;2.58;;
31112;SDS011;17763;48.730;9.136;2024-02-26T09:25:03;2.50;;;2.15;;
31112;SDS011;17763;48.730;9.136;2024-02-26T09:27:29;3.80;;;2.22;;
31112;SDS011;17763;48.730;9.136;2024-02-26T09:29:55;4.85;;;2.15;;
31112;SDS011;17763;48.730;9.136;2024-02-26T09:32:21;4.88;;;2.63;;
31112;SDS011;17763;48.730;9.136;2024-02-26T09:34:49;4.82;;;2.95;;
31112;SDS011;17763;48.730;9.136;2024-02-26T09:37:17;2.72;;;2.35;;
31112;SDS011;17763;48.730;9.136;2024-02-26T09:39:43;2.33;;;2.13;;
31112;SDS011;17763;48.730;9.136;2024-02-26T09:42:11;2.30;;;2.10;;
31112;SDS011;17763;48.730;9.136;2024-02-26T09:44:39;3.10;;;2.35;;
31112;SDS011;17763;48.730;9.136;2024-02-26T09:47:07;2.15;;;1.70;;
31112;SDS011;17763;48.730;9.136;2024-02-26T09:49:36;3.95;;;1.90;;
31112;SDS011;17763;48.730;9.136;2024-02-26T09:52:05;4.13;;;2.63;;
31112;SDS011;17763;48.730;9.136;2024-02-26T09:54:33;3.30;;;2.17;;
31112;SDS011;17763;48.730;9.136;2024-02-26T09:57:00;2.00;;;1.88;;
31112;SDS011;17763;48.730;9.136;2024-02-26T10:02:04;3.63;;;1.92;;
31112;SDS011;17763;48.730;9.136;2024-02-26T10:04:37;2.10;;;1.90;;
31112;SDS011;17763;48.730;9.136;2024-02-26T10:07:04;2.63;;;2.10;;
31112;SDS011;17763;48.730;9.136;2024-02-26T10:09:37;5.15;;;2.08;;
31112;SDS011;17763;48.730;9.136;2024-02-26T10:12:06;4.15;;;1.80;;
31112;SDS011;17763;48.730;9.136;2024-02-26T10:14:34;4.80;;;3.42;;
31112;SDS011;17763;48.730;9.136;2024-02-26T10:17:01;9.55;;;6.03;;
31112;SDS011;17763;48.730;9.136;2024-02-26T10:19:33;3.20;;;2.80;;
31112;SDS011;17763;48.730;9.136;2024-02-26T10:22:01;1.70;;;1.60;;
31112;SDS011;17763;48.730;9.136;2024-02-26T10:24:28;2.17;;;1.70;;
31112;SDS011;17763;48.730;9.136;2024-02-26T10:26:56;1.80;;;1.63;;
31112;SDS011;17763;48.730;9.136;2024-02-26T10:29:23;7.50;;;2.00;;
31112;SDS011;17763;48.730;9.136;2024-02-26T10:31:50;2.72;;;2.05;;
31112;SDS011;17763;48.730;9.136;2024-02-26T10:34:19;2.95;;;2.45;;
31112;SDS011;17763;48.730;9.136;2024-02-26T10:36:48;2.17;;;2.00;;
31112;SDS011;17763;48.730;9.136;2024-02-26T10:39:14;3.22;;;2.08;;
31112;SDS011;17763;48.730;9.136;2024-02-26T10:41:41;2.88;;;2.60;;
31112;SDS011;17763;48.730;9.136;2024-02-26T10:44:10;9.00;;;4.40;;
31112;SDS011;17763;48.730;9.136;2024-02-26T10:46:36;3.13;;;2.50;;
31112;SDS011;17763;48.730;9.136;2024-02-26T10:49:05;4.78;;;2.38;;
31112;SDS011;17763;48.730;9.136;2024-02-26T10:51:36;2.60;;;2.40;;
31112;SDS011;17763;48.730;9.136;2024-02-26T10:54:04;3.33;;;2.58;;
31112;SDS011;17763;48.730;9.136;2024-02-26T10:56:33;3.50;;;2.45;;
31112;SDS011;17763;48.730;9.136;2024-02-26T10:59:02;4.65;;;3.50;;
31112;SDS011;17763;48.730;9.136;2024-02-26T11:01:30;3.78;;;3.22;;
31112;SDS011;17763;48.730;9.136;2024-02-26T11:03:56;4.63;;;2.80;;
31112;SDS011;17763;48.730;9.136;2024-02-26T11:06:23;4.00;;;2.95;;
31112;SDS011;17763;48.730;9.136;2024-02-26T11:08:51;2.90;;;2.70;;
31112;SDS011;17763;48.730;9.136;2024-02-26T11:11:19;5.30;;;3.00;;
31112;SDS011;17763;48.730;9.136;2024-02-26T11:13:48;3.60;;;2.72;;
31112;SDS011;17763;48.730;9.136;2024-02-26T11:16:18;4.80;;;2.67;;
31112;SDS011;17763;48.730;9.136;2024-02-26T11:18:45;6.30;;;2.72;;
31112;SDS011;17763;48.730;9.136;2024-02-26T11:21:13;2.35;;;1.90;;
31112;SDS011;17763;48.730;9.136;2024-02-26T11:23:41;4.07;;;3.70;;
31112;SDS011;17763;48.730;9.136;2024-02-26T11:26:07;5.72;;;5.10;;
31112;SDS011;17763;48.730;9.136;2024-02-26T11:28:38;3.42;;;3.10;;
31112;SDS011;17763;48.730;9.136;2024-02-26T11:31:07;2.05;;;1.88;;
31112;SDS011;17763;48.730;9.136;2024-02-26T11:33:34;3.15;;;1.85;;
31112;SDS011;17763;48.730;9.136;2024-02-26T11:36:11;2.63;;;1.90;;
31112;SDS011;17763;48.730;9.136;2024-02-26T11:38:37;2.28;;;1.73;;
31112;SDS011;17763;48.730;9.136;2024-02-26T11:41:05;2.22;;;1.58;;
31112;SDS011;17763;48.730;9.136;2024-02-26T11:46:43;1.92;;;1.80;;
31112;SDS011;17763;48.730;9.136;2024-02-26T11:51:51;1.73;;;1.33;;
31112;SDS011;17763;48.730;9.136;2024-02-26T11:57:03;2.45;;;1.50;;
31112;SDS011;17763;48.730;9.136;2024-02-26T11:59:39;3.90;;;1.73;;
31112;SDS011;17763;48.730;9.136;2024-02-26T12:02:07;2.33;;;1.55;;
31112;SDS011;17763;48.730;9.136;2024-02-26T12:04:33;2.67;;;1.67;;
31112;SDS011;17763;48.730;9.136;2024-02-26T12:07:02;1.60;;;1.50;;
31112;SDS011;17763;48.730;9.136;2024-02-26T12:12:08;2.53;;;1.20;;
31112;SDS011;17763;48.730;9.136;2024-02-26T12:14:52;1.67;;;1.25;;
31112;SDS011;17763;48.730;9.136;2024-02-26T12:17:19;1.40;;;1.30;;
31112;SDS011;17763;48.730;9.136;2024-02-26T12:19:46;1.58;;;1.17;;
31112;SDS011;17763;48.730;9.136;2024-02-26T12:22:15;2.97;;;1.40;;
31112;SDS011;17763;48.730;9.136;2024-02-26T12:24:41;2.80;;;2.20;;
31112;SDS011;17763;48.730;9.136;2024-02-26T12:27:07;2.45;;;1.70;;
31112;SDS011;17763;48.730;9.136;2024-02-26T12:29:42;3.90;;;1.60;;
31112;SDS011;17763;48.730;9.136;2024-02-26T12:32:15;3.55;;;1.77;;
31112;SDS011;17763;48.730;9.136;2024-02-26T12:34:41;1.38;;;1.27;;
31112;SDS011;17763;48.730;9.136;2024-02-26T12:37:09;6.13;;;4.15;;
31112;SDS011;17763;48.730;9.136;2024-02-26T12:39:36;2.10;;;1.90;;
31112;SDS011;17763;48.730;9.136;2024-02-26T12:42:02;1.73;;;1.50;;
31112;SDS011;17763;48.730;9.136;2024-02-26T12:44:28;1.95;;;1.30;;
31112;SDS011;17763;48.730;9.136;2024-02-26T12:47:03;1.30;;;1.20;;
31112;SDS011;17763;48.730;9.136;2024-02-26T12:49:30;2.28;;;1.20;;
31112;SDS011;17763;48.730;9.136;2024-02-26T12:51:56;1.67;;;1.58;;
31112;SDS011;17763;48.730;9.136;2024-02-26T12:54:30;2.72;;;1.30;;
31112;SDS011;17763;48.730;9.136;2024-02-26T12:56:57;2.63;;;1.27;;
31112;SDS011;17763;48.730;9.136;2024-02-26T12:59:23;1.88;;;1.50;;
31112;SDS011;17763;48.730;9.136;2024-02-26T13:01:51;3.90;;;1.30;;
31112;SDS011;17763;48.730;9.136;2024-02-26T13:04:17;1.20;;;1.10;;
31112;SDS011;17763;48.730;9.136;2024-02-26T13:06:43;2.83;;;1.23;;
31112;SDS011;17763;48.730;9.136;2024-02-26T13:09:12;1.52;;;1.35;;
31112;SDS011;17763;48.730;9.136;2024-02-26T13:11:41;2.15;;;1.30;;
31112;SDS011;17763;48.730;9.136;2024-02-26T13:14:07;6.43;;;4.68;;
31112;SDS011;17763;48.730;9.136;2024-02-26T13:16:43;6.85;;;4.68;;
31112;SDS011;17763;48.730;9.136;2024-02-26T13:19:09;4.53;;;1.67;;
31112;SDS011;17763;48.730;9.136;2024-02-26T13:21:35;1.75;;;1.40;;
31112;SDS011;17763;48.730;9.136;2024-02-26T13:24:01;3.25;;;1.00;;
31112;SDS011;17763;48.730;9.136;2024-02-26T13:26:26;2.63;;;1.30;;
31112;SDS011;17763;48.730;9.136;2024-02-26T13:28:59;2.40;;;2.20;;
31112;SDS011;17763;48.730;9.136;2024-02-26T13:31:26;2.58;;;2.38;;
31112;SDS011;17763;48.730;9.136;2024-02-26T13:33:52;3.22;;;2.35;;
31112;SDS011;17763;48.730;9.136;2024-02-26T13:36:20;1.13;;;0.95;;
31112;SDS011;17763;48.730;9.136;2024-02-26T13:38:53;1.10;;;0.90;;
31112;SDS011;17763;48.730;9.136;2024-02-26T13:41:19;2.13;;;0.90;;
31112;SDS011;17763;48.730;9.136;2024-02-26T13:43:46;0.80;;;0.80;;
31112;SDS011;17763;48.730;9.136;2024-02-26T13:46:15;3.10;;;2.17;;
31112;SDS011;17763;48.730;9.136;2024-02-26T13:48:42;1.75;;;1.65;;
31112;SDS011;17763;48.730;9.136;2024-02-26T13:51:08;1.35;;;1.20;;
31112;SDS011;17763;48.730;9.136;2024-02-26T13:53:34;0.57;;;0.57;;
31112;SDS011;17763;48.730;9.136;2024-02-26T13:55:59;1.30;;;1.20;;
31112;SDS011;17763;48.730;9.136;2024-02-26T13:58:30;1.52;;;0.85;;
31112;SDS011;17763;48.730;9.136;2024-02-26T14:00:56;2.60;;;1.40;;
31112;SDS011;17763;48.730;9.136;2024-02-26T14:03:24;3.20;;;1.42;;
31112;SDS011;17763;48.730;9.136;2024-02-26T14:05:50;1.40;;;1.27;;
31112;SDS011;17763;48.730;9.136;2024-02-26T14:08:16;1.90;;;1.20;;
31112;SDS011;17763;48.730;9.136;2024-02-26T14:10:41;1.80;;;0.90;;
31112;SDS011;17763;48.730;9.136;2024-02-26T14:13:07;3.47;;;1.10;;
31112;SDS011;17763;48.730;9.136;2024-02-26T14:15:33;1.70;;;1.00;;
31112;SDS011;17763;48.730;9.136;2024-02-26T14:18:00;1.95;;;1.13;;
31112;SDS011;17763;48.730;9.136;2024-02-26T14:20:28;1.52;;;1.20;;
31112;SDS011;17763;48.730;9.136;2024-02-26T14:22:53;1.20;;;1.10;;
31112;SDS011;17763;48.730;9.136;2024-02-26T14:25:19;1.48;;;1.17;;
31112;SDS011;17763;48.730;9.136;2024-02-26T14:27:46;2.70;;;2.40;;
31112;SDS011;17763;48.730;9.136;2024-02-26T14:30:14;3.28;;;1.30;;
31112;SDS011;17763;48.730;9.136;2024-02-26T14:32:40;1.70;;;1.42;;
31112;SDS011;17763;48.730;9.136;2024-02-26T14:35:08;1.20;;;1.10;;
31112;SDS011;17763;48.730;9.136;2024-02-26T14:37:37;1.42;;;1.17;;
31112;SDS011;17763;48.730;9.136;2024-02-26T14:40:02;1.88;;;1.05;;
31112;SDS011;17763;48.730;9.136;2024-02-26T14:42:29;0.93;;;0.93;;
31112;SDS011;17763;48.730;9.136;2024-02-26T14:44:54;0.80;;;0.80;;
31112;SDS011;17763;48.730;9.136;2024-02-26T14:47:22;1.40;;;0.80;;
31112;SDS011;17763;48.730;9.136;2024-02-26T14:49:48;0.90;;;0.90;;
31112;SDS011;17763;48.730;9.136;2024-02-26T14:52:16;0.75;;;0.70;;
31112;SDS011;17763;48.730;9.136;2024-02-26T14:54:42;0.63;;;0.63;;
31112;SDS011;17763;48.730;9.136;2024-02-26T14:57:10;0.88;;;0.70;;
31112;SDS011;17763;48.730;9.136;2024-02-26T14:59:38;0.98;;;0.77;;
31112;SDS011;17763;48.730;9.136;2024-02-26T15:02:07;0.95;;;0.60;;
31112;SDS011;17763;48.730;9.136;2024-02-26T15:04:34;0.93;;;0.60;;
31112;SDS011;17763;48.730;9.136;2024-02-26T15:07:01;2.00;;;1.05;;
31112;SDS011;17763;48.730;9.136;2024-02-26T15:09:26;1.90;;;0.85;;
31112;SDS011;17763;48.730;9.136;2024-02-26T15:11:52;1.10;;;0.98;;